sensor_id;sensor_type;location;lat;lon;timestamp;temperature;humidity
54264;DHT22;40178;53.042;6.406;2022-09-09T00:00:49;13.70;99.90
54264;DHT22;40178;53.042;6.406;2022-09-09T00:03:27;13.60;99.90
54264;DHT22;40178;53.042;6.406;2022-09-09T00:06:04;13.60;99.90
54264;DHT22;40178;53.042;6.406;2022-09-09T00:11:40;13.60;99.90
54264;DHT22;40178;53.042;6.406;2022-09-09T00:14:35;13.50;99.90
54264;DHT22;40178;53.042;6.406;2022-09-09T00:17:06;13.50;99.90
54264;DHT22;40178;53.042;6.406;2022-09-09T00:19:44;13.50;99.90
54264;DHT22;40178;53.042;6.406;2022-09-09T00:22:23;13.40;99.90
54264;DHT22;40178;53.042;6.406;2022-09-09T00:24:52;13.40;99.90
54264;DHT22;40178;53.042;6.406;2022-09-09T00:30:02;13.30;99.90
54264;DHT22;40178;53.042;6.406;2022-09-09T00:32:30;13.20;99.90
54264;DHT22;40178;53.042;6.406;2022-09-09T00:35:02;13.10;99.90
54264;DHT22;40178;53.042;6.406;2022-09-09T00:37:28;13.10;99.90
54264;DHT22;40178;53.042;6.406;2022-09-09T00:39:59;13.10;99.90
54264;DHT22;40178;53.042;6.406;2022-09-09T00:42:42;13.00;99.90
54264;DHT22;40178;53.042;6.406;2022-09-09T00:48:11;12.90;99.90
54264;DHT22;40178;53.042;6.406;2022-09-09T00:50:49;12.90;99.90
54264;DHT22;40178;53.042;6.406;2022-09-09T00:53:51;12.90;99.90
54264;DHT22;40178;53.042;6.406;2022-09-09T00:56:52;12.80;99.90
54264;DHT22;40178;53.042;6.406;2022-09-09T00:59:16;12.90;99.90
54264;DHT22;40178;53.042;6.406;2022-09-09T01:01:48;12.80;99.90
54264;DHT22;40178;53.042;6.406;2022-09-09T01:04:20;12.80;99.90
54264;DHT22;40178;53.042;6.406;2022-09-09T01:06:48;12.80;99.90
54264;DHT22;40178;53.042;6.406;2022-09-09T01:09:47;12.80;99.90
54264;DHT22;40178;53.042;6.406;2022-09-09T01:12:30;12.80;99.90
54264;DHT22;40178;53.042;6.406;2022-09-09T01:15:09;12.80;99.90
54264;DHT22;40178;53.042;6.406;2022-09-09T01:17:46;12.70;99.90
54264;DHT22;40178;53.042;6.406;2022-09-09T01:20:24;12.70;99.90
54264;DHT22;40178;53.042;6.406;2022-09-09T01:23:11;12.60;99.90
54264;DHT22;40178;53.042;6.406;2022-09-09T01:28:29;12.60;99.90
54264;DHT22;40178;53.042;6.406;2022-09-09T01:30:57;12.60;99.90
54264;DHT22;40178;53.042;6.406;2022-09-09T01:33:24;12.50;99.90
54264;DHT22;40178;53.042;6.406;2022-09-09T01:35:57;12.50;99.90
54264;DHT22;40178;53.042;6.406;2022-09-09T01:38:26;12.60;99.90
54264;DHT22;40178;53.042;6.406;2022-09-09T01:40:53;12.60;99.90
54264;DHT22;40178;53.042;6.406;2022-09-09T01:43:22;12.60;99.90
54264;DHT22;40178;53.042;6.406;2022-09-09T01:45:52;12.60;99.90
54264;DHT22;40178;53.042;6.406;2022-09-09T01:48:20;12.60;99.90
54264;DHT22;40178;53.042;6.406;2022-09-09T01:50:46;12.60;99.90
54264;DHT22;40178;53.042;6.406;2022-09-09T01:53:12;12.80;99.90
54264;DHT22;40178;53.042;6.406;2022-09-09T01:55:40;12.80;99.90
54264;DHT22;40178;53.042;6.406;2022-09-09T02:03:33;13.20;99.90
54264;DHT22;40178;53.042;6.406;2022-09-09T02:08:44;13.30;99.90
54264;DHT22;40178;53.042;6.406;2022-09-09T02:11:15;13.20;99.90
54264;DHT22;40178;53.042;6.406;2022-09-09T02:13:43;13.30;99.90
54264;DHT22;40178;53.042;6.406;2022-09-09T02:16:21;13.40;99.90
54264;DHT22;40178;53.042;6.406;2022-09-09T02:18:56;13.40;99.90
54264;DHT22;40178;53.042;6.406;2022-09-09T02:21:23;13.30;99.90
54264;DHT22;40178;53.042;6.406;2022-09-09T02:23:50;13.40;99.90
54264;DHT22;40178;53.042;6.406;2022-09-09T02:26:19;13.40;99.90
54264;DHT22;40178;53.042;6.406;2022-09-09T02:28:50;13.30;99.90
54264;DHT22;40178;53.042;6.406;2022-09-09T02:31:18;13.40;99.90
54264;DHT22;40178;53.042;6.406;2022-09-09T02:33:48;13.40;99.90
54264;DHT22;40178;53.042;6.406;2022-09-09T02:36:15;13.40;99.90
54264;DHT22;40178;53.042;6.406;2022-09-09T02:38:45;13.50;99.90
54264;DHT22;40178;53.042;6.406;2022-09-09T02:41:19;13.50;99.90
54264;DHT22;40178;53.042;6.406;2022-09-09T02:43:47;13.50;99.90
54264;DHT22;40178;53.042;6.406;2022-09-09T02:46:18;13.50;99.90
54264;DHT22;40178;53.042;6.406;2022-09-09T02:49:09;13.60;99.90
54264;DHT22;40178;53.042;6.406;2022-09-09T02:54:37;13.60;99.90
54264;DHT22;40178;53.042;6.406;2022-09-09T02:57:10;13.60;99.90
54264;DHT22;40178;53.042;6.406;2022-09-09T02:59:37;13.70;99.90
54264;DHT22;40178;53.042;6.406;2022-09-09T03:02:03;13.60;99.90
54264;DHT22;40178;53.042;6.406;2022-09-09T03:04:29;13.70;99.90
54264;DHT22;40178;53.042;6.406;2022-09-09T03:06:57;13.80;99.90
54264;DHT22;40178;53.042;6.406;2022-09-09T03:09:22;13.80;99.90
54264;DHT22;40178;53.042;6.406;2022-09-09T03:11:48;13.80;99.90
54264;DHT22;40178;53.042;6.406;2022-09-09T03:14:15;13.70;99.90
54264;DHT22;40178;53.042;6.406;2022-09-09T03:16:41;13.80;99.90
54264;DHT22;40178;53.042;6.406;2022-09-09T03:19:08;13.70;99.90
54264;DHT22;40178;53.042;6.406;2022-09-09T03:21:34;13.80;99.90
54264;DHT22;40178;53.042;6.406;2022-09-09T03:23:59;13.70;99.90
54264;DHT22;40178;53.042;6.406;2022-09-09T03:26:25;13.80;99.90
54264;DHT22;40178;53.042;6.406;2022-09-09T03:28:51;13.80;99.90
54264;DHT22;40178;53.042;6.406;2022-09-09T03:31:17;13.70;99.90
54264;DHT22;40178;53.042;6.406;2022-09-09T03:33:44;13.70;99.90
54264;DHT22;40178;53.042;6.406;2022-09-09T03:36:10;13.80;99.90
54264;DHT22;40178;53.042;6.406;2022-09-09T03:38:35;13.80;99.90
54264;DHT22;40178;53.042;6.406;2022-09-09T03:41:01;13.80;99.90
54264;DHT22;40178;53.042;6.406;2022-09-09T03:43:28;13.80;99.90
54264;DHT22;40178;53.042;6.406;2022-09-09T03:45:54;13.80;99.90
54264;DHT22;40178;53.042;6.406;2022-09-09T03:48:22;13.90;99.90
54264;DHT22;40178;53.042;6.406;2022-09-09T03:50:50;13.80;99.90
54264;DHT22;40178;53.042;6.406;2022-09-09T03:53:17;13.90;99.90
54264;DHT22;40178;53.042;6.406;2022-09-09T03:55:52;13.90;99.90
54264;DHT22;40178;53.042;6.406;2022-09-09T03:58:21;13.80;99.90
54264;DHT22;40178;53.042;6.406;2022-09-09T04:00:57;13.90;99.90
54264;DHT22;40178;53.042;6.406;2022-09-09T04:03:24;14.00;99.90
54264;DHT22;40178;53.042;6.406;2022-09-09T04:05:54;13.90;99.90
54264;DHT22;40178;53.042;6.406;2022-09-09T04:08:21;13.90;99.90
54264;DHT22;40178;53.042;6.406;2022-09-09T04:10:48;13.90;99.90
54264;DHT22;40178;53.042;6.406;2022-09-09T04:13:15;14.00;99.90
54264;DHT22;40178;53.042;6.406;2022-09-09T04:15:44;13.90;99.90
54264;DHT22;40178;53.042;6.406;2022-09-09T04:18:10;13.90;99.90
54264;DHT22;40178;53.042;6.406;2022-09-09T04:20:37;13.90;99.90
54264;DHT22;40178;53.042;6.406;2022-09-09T04:23:03;13.90;99.90
54264;DHT22;40178;53.042;6.406;2022-09-09T04:25:29;13.90;99.90
54264;DHT22;40178;53.042;6.406;2022-09-09T04:27:56;13.90;99.90
54264;DHT22;40178;53.042;6.406;2022-09-09T04:30:23;13.90;99.90
54264;DHT22;40178;53.042;6.406;2022-09-09T04:32:49;13.90;99.90
54264;DHT22;40178;53.042;6.406;2022-09-09T04:35:15;13.90;99.90
54264;DHT22;40178;53.042;6.406;2022-09-09T04:37:40;14.00;99.90
54264;DHT22;40178;53.042;6.406;2022-09-09T04:40:07;13.80;99.90
54264;DHT22;40178;53.042;6.406;2022-09-09T04:42:39;13.80;99.90
54264;DHT22;40178;53.042;6.406;2022-09-09T04:45:05;13.90;99.90
54264;DHT22;40178;53.042;6.406;2022-09-09T04:47:32;13.90;99.90
54264;DHT22;40178;53.042;6.406;2022-09-09T04:49:58;13.80;99.90
54264;DHT22;40178;53.042;6.406;2022-09-09T04:52:23;13.80;99.90
54264;DHT22;40178;53.042;6.406;2022-09-09T04:54:49;13.80;99.90
54264;DHT22;40178;53.042;6.406;2022-09-09T04:57:14;13.80;99.90
54264;DHT22;40178;53.042;6.406;2022-09-09T04:59:40;13.80;99.90
54264;DHT22;40178;53.042;6.406;2022-09-09T05:02:06;13.80;99.90
54264;DHT22;40178;53.042;6.406;2022-09-09T05:04:32;13.80;99.90
54264;DHT22;40178;53.042;6.406;2022-09-09T05:06:59;13.90;99.90
54264;DHT22;40178;53.042;6.406;2022-09-09T05:09:24;13.80;99.90
54264;DHT22;40178;53.042;6.406;2022-09-09T05:11:50;13.90;99.90
54264;DHT22;40178;53.042;6.406;2022-09-09T05:14:16;13.80;99.90
54264;DHT22;40178;53.042;6.406;2022-09-09T05:16:44;13.80;99.90
54264;DHT22;40178;53.042;6.406;2022-09-09T05:19:10;13.90;99.90
54264;DHT22;40178;53.042;6.406;2022-09-09T05:21:36;13.80;99.90
54264;DHT22;40178;53.042;6.406;2022-09-09T05:24:01;13.80;99.90
54264;DHT22;40178;53.042;6.406;2022-09-09T05:26:27;13.90;99.90
54264;DHT22;40178;53.042;6.406;2022-09-09T05:28:54;13.90;99.90
54264;DHT22;40178;53.042;6.406;2022-09-09T05:31:20;13.80;99.90
54264;DHT22;40178;53.042;6.406;2022-09-09T05:33:47;13.80;99.90
54264;DHT22;40178;53.042;6.406;2022-09-09T05:36:15;13.70;99.90
54264;DHT22;40178;53.042;6.406;2022-09-09T05:38:42;13.90;99.90
54264;DHT22;40178;53.042;6.406;2022-09-09T05:41:09;13.80;99.90
54264;DHT22;40178;53.042;6.406;2022-09-09T05:43:37;13.70;99.90
54264;DHT22;40178;53.042;6.406;2022-09-09T05:46:05;13.80;99.90
54264;DHT22;40178;53.042;6.406;2022-09-09T05:48:33;13.80;99.90
54264;DHT22;40178;53.042;6.406;2022-09-09T05:50:59;13.90;99.90
54264;DHT22;40178;53.042;6.406;2022-09-09T05:53:29;13.80;99.90
54264;DHT22;40178;53.042;6.406;2022-09-09T05:56:04;13.80;99.90
54264;DHT22;40178;53.042;6.406;2022-09-09T05:58:31;13.80;99.90
54264;DHT22;40178;53.042;6.406;2022-09-09T06:01:04;13.90;99.90
54264;DHT22;40178;53.042;6.406;2022-09-09T06:03:32;13.80;99.90
54264;DHT22;40178;53.042;6.406;2022-09-09T06:06:03;13.80;99.90
54264;DHT22;40178;53.042;6.406;2022-09-09T06:08:33;13.90;99.90
54264;DHT22;40178;53.042;6.406;2022-09-09T06:11:07;13.90;99.90
54264;DHT22;40178;53.042;6.406;2022-09-09T06:13:33;14.00;99.90
54264;DHT22;40178;53.042;6.406;2022-09-09T06:15:59;13.90;99.90
54264;DHT22;40178;53.042;6.406;2022-09-09T06:18:25;14.00;99.90
54264;DHT22;40178;53.042;6.406;2022-09-09T06:20:55;14.00;99.90
54264;DHT22;40178;53.042;6.406;2022-09-09T06:23:21;14.10;99.90
54264;DHT22;40178;53.042;6.406;2022-09-09T06:25:46;14.00;99.90
54264;DHT22;40178;53.042;6.406;2022-09-09T06:28:12;14.10;99.90
54264;DHT22;40178;53.042;6.406;2022-09-09T06:30:39;14.20;99.90
54264;DHT22;40178;53.042;6.406;2022-09-09T06:33:05;14.10;99.90
54264;DHT22;40178;53.042;6.406;2022-09-09T06:35:31;14.10;99.90
54264;DHT22;40178;53.042;6.406;2022-09-09T06:37:56;14.10;99.90
54264;DHT22;40178;53.042;6.406;2022-09-09T06:40:24;14.20;99.90
54264;DHT22;40178;53.042;6.406;2022-09-09T06:42:50;14.20;99.90
54264;DHT22;40178;53.042;6.406;2022-09-09T06:45:16;14.20;99.90
54264;DHT22;40178;53.042;6.406;2022-09-09T06:47:43;14.20;99.90
54264;DHT22;40178;53.042;6.406;2022-09-09T06:50:09;14.30;99.90
54264;DHT22;40178;53.042;6.406;2022-09-09T06:52:36;14.30;99.90
54264;DHT22;40178;53.042;6.406;2022-09-09T06:55:02;14.30;99.90
54264;DHT22;40178;53.042;6.406;2022-09-09T06:57:28;14.30;99.90
54264;DHT22;40178;53.042;6.406;2022-09-09T06:59:54;14.30;99.90
54264;DHT22;40178;53.042;6.406;2022-09-09T07:02:19;14.40;99.90
54264;DHT22;40178;53.042;6.406;2022-09-09T07:04:45;14.40;99.90
54264;DHT22;40178;53.042;6.406;2022-09-09T07:07:11;14.50;99.90
54264;DHT22;40178;53.042;6.406;2022-09-09T07:09:39;14.60;99.90
54264;DHT22;40178;53.042;6.406;2022-09-09T07:12:05;14.60;99.90
54264;DHT22;40178;53.042;6.406;2022-09-09T07:14:32;14.70;99.90
54264;DHT22;40178;53.042;6.406;2022-09-09T07:16:59;14.70;99.90
54264;DHT22;40178;53.042;6.406;2022-09-09T07:19:25;14.70;99.90
54264;DHT22;40178;53.042;6.406;2022-09-09T07:21:51;14.70;99.90
54264;DHT22;40178;53.042;6.406;2022-09-09T07:24:17;14.80;99.90
54264;DHT22;40178;53.042;6.406;2022-09-09T07:26:43;14.70;99.90
54264;DHT22;40178;53.042;6.406;2022-09-09T07:29:09;14.80;99.90
54264;DHT22;40178;53.042;6.406;2022-09-09T07:31:36;14.90;99.90
54264;DHT22;40178;53.042;6.406;2022-09-09T07:34:03;14.90;99.90
54264;DHT22;40178;53.042;6.406;2022-09-09T07:36:34;15.00;99.90
54264;DHT22;40178;53.042;6.406;2022-09-09T07:39:02;15.20;99.90
54264;DHT22;40178;53.042;6.406;2022-09-09T07:41:29;15.40;99.90
54264;DHT22;40178;53.042;6.406;2022-09-09T07:43:55;15.60;99.90
54264;DHT22;40178;53.042;6.406;2022-09-09T07:46:24;15.70;99.90
54264;DHT22;40178;53.042;6.406;2022-09-09T07:48:52;15.80;99.90
54264;DHT22;40178;53.042;6.406;2022-09-09T07:51:21;16.00;99.90
54264;DHT22;40178;53.042;6.406;2022-09-09T07:53:48;16.00;99.90
54264;DHT22;40178;53.042;6.406;2022-09-09T07:56:16;16.20;99.90
54264;DHT22;40178;53.042;6.406;2022-09-09T07:58:49;16.20;99.90
54264;DHT22;40178;53.042;6.406;2022-09-09T08:03:53;16.30;99.90
54264;DHT22;40178;53.042;6.406;2022-09-09T08:06:19;16.50;99.90
54264;DHT22;40178;53.042;6.406;2022-09-09T08:08:44;16.70;99.90
54264;DHT22;40178;53.042;6.406;2022-09-09T08:11:14;16.70;99.90
54264;DHT22;40178;53.042;6.406;2022-09-09T08:13:42;16.60;99.90
54264;DHT22;40178;53.042;6.406;2022-09-09T08:16:11;16.60;99.90
54264;DHT22;40178;53.042;6.406;2022-09-09T08:18:37;16.40;99.90
54264;DHT22;40178;53.042;6.406;2022-09-09T08:21:05;16.50;99.90
54264;DHT22;40178;53.042;6.406;2022-09-09T08:23:32;16.60;99.90
54264;DHT22;40178;53.042;6.406;2022-09-09T08:26:13;16.50;99.90
54264;DHT22;40178;53.042;6.406;2022-09-09T08:28:40;16.40;99.90
54264;DHT22;40178;53.042;6.406;2022-09-09T08:31:14;16.40;99.90
54264;DHT22;40178;53.042;6.406;2022-09-09T08:33:41;16.40;99.90
54264;DHT22;40178;53.042;6.406;2022-09-09T08:36:10;16.50;99.90
54264;DHT22;40178;53.042;6.406;2022-09-09T08:38:36;16.50;99.90
54264;DHT22;40178;53.042;6.406;2022-09-09T08:44:15;16.60;99.90
54264;DHT22;40178;53.042;6.406;2022-09-09T08:52:31;17.60;99.90
54264;DHT22;40178;53.042;6.406;2022-09-09T08:57:56;17.90;99.90
54264;DHT22;40178;53.042;6.406;2022-09-09T09:00:23;18.20;99.90
54264;DHT22;40178;53.042;6.406;2022-09-09T09:03:06;18.30;99.90
54264;DHT22;40178;53.042;6.406;2022-09-09T09:05:42;18.10;98.50
54264;DHT22;40178;53.042;6.406;2022-09-09T09:08:26;18.30;99.90
54264;DHT22;40178;53.042;6.406;2022-09-09T09:10:56;18.50;99.90
54264;DHT22;40178;53.042;6.406;2022-09-09T09:16:29;18.20;97.50
54264;DHT22;40178;53.042;6.406;2022-09-09T09:18:58;18.10;95.90
54264;DHT22;40178;53.042;6.406;2022-09-09T09:24:00;18.20;99.90
54264;DHT22;40178;53.042;6.406;2022-09-09T09:26:32;18.30;98.30
54264;DHT22;40178;53.042;6.406;2022-09-09T09:28:59;18.60;99.90
54264;DHT22;40178;53.042;6.406;2022-09-09T09:31:26;18.80;92.80
54264;DHT22;40178;53.042;6.406;2022-09-09T09:33:55;18.70;91.50
54264;DHT22;40178;53.042;6.406;2022-09-09T09:36:34;18.60;96.60
54264;DHT22;40178;53.042;6.406;2022-09-09T09:39:02;18.40;93.00
54264;DHT22;40178;53.042;6.406;2022-09-09T09:41:36;18.20;86.60
54264;DHT22;40178;53.042;6.406;2022-09-09T09:44:05;18.20;95.40
54264;DHT22;40178;53.042;6.406;2022-09-09T09:46:31;18.30;99.90
54264;DHT22;40178;53.042;6.406;2022-09-09T09:49:05;18.40;98.70
54264;DHT22;40178;53.042;6.406;2022-09-09T09:51:32;18.50;95.30
54264;DHT22;40178;53.042;6.406;2022-09-09T09:54:16;18.60;99.90
54264;DHT22;40178;53.042;6.406;2022-09-09T09:56:44;18.70;93.30
54264;DHT22;40178;53.042;6.406;2022-09-09T09:59:33;18.50;94.60
54264;DHT22;40178;53.042;6.406;2022-09-09T10:04:38;18.20;93.20
54264;DHT22;40178;53.042;6.406;2022-09-09T10:07:21;18.30;98.80
54264;DHT22;40178;53.042;6.406;2022-09-09T10:09:53;18.30;99.70
54264;DHT22;40178;53.042;6.406;2022-09-09T10:15:12;18.40;97.00
54264;DHT22;40178;53.042;6.406;2022-09-09T10:20:44;18.50;75.40
54264;DHT22;40178;53.042;6.406;2022-09-09T10:31:45;18.70;81.30
54264;DHT22;40178;53.042;6.406;2022-09-09T10:36:58;18.60;82.90
54264;DHT22;40178;53.042;6.406;2022-09-09T10:42:05;18.70;92.70
54264;DHT22;40178;53.042;6.406;2022-09-09T10:55:44;19.80;49.40
54264;DHT22;40178;53.042;6.406;2022-09-09T10:58:18;19.90;27.40
54264;DHT22;40178;53.042;6.406;2022-09-09T11:00:50;19.80;39.30
54264;DHT22;40178;53.042;6.406;2022-09-09T11:03:27;19.70;55.00
54264;DHT22;40178;53.042;6.406;2022-09-09T11:08:26;19.60;79.00
54264;DHT22;40178;53.042;6.406;2022-09-09T11:11:03;19.50;77.40
54264;DHT22;40178;53.042;6.406;2022-09-09T11:13:43;19.50;56.00
54264;DHT22;40178;53.042;6.406;2022-09-09T11:18:46;19.30;64.80
54264;DHT22;40178;53.042;6.406;2022-09-09T11:21:34;19.20;57.50
54264;DHT22;40178;53.042;6.406;2022-09-09T11:24:09;19.20;55.10
54264;DHT22;40178;53.042;6.406;2022-09-09T11:26:47;19.00;52.00
54264;DHT22;40178;53.042;6.406;2022-09-09T11:29:38;19.00;57.20
54264;DHT22;40178;53.042;6.406;2022-09-09T11:35:26;19.20;73.00
54264;DHT22;40178;53.042;6.406;2022-09-09T11:38:38;19.50;81.50
54264;DHT22;40178;53.042;6.406;2022-09-09T11:41:07;19.40;46.60
54264;DHT22;40178;53.042;6.406;2022-09-09T11:43:46;19.30;70.70
54264;DHT22;40178;53.042;6.406;2022-09-09T11:46:15;19.30;65.80
54264;DHT22;40178;53.042;6.406;2022-09-09T11:48:58;19.30;63.70
54264;DHT22;40178;53.042;6.406;2022-09-09T11:54:34;19.30;85.20
54264;DHT22;40178;53.042;6.406;2022-09-09T11:56:42;19.00;52.80
54264;DHT22;40178;53.042;6.406;2022-09-09T11:59:27;19.10;72.10
54264;DHT22;40178;53.042;6.406;2022-09-09T12:01:59;19.10;81.30
54264;DHT22;40178;53.042;6.406;2022-09-09T12:09:52;19.10;50.70
54264;DHT22;40178;53.042;6.406;2022-09-09T12:12:24;19.20;51.20
54264;DHT22;40178;53.042;6.406;2022-09-09T12:15:19;19.30;58.40
54264;DHT22;40178;53.042;6.406;2022-09-09T12:17:49;19.50;38.00
54264;DHT22;40178;53.042;6.406;2022-09-09T12:20:31;19.70;74.80
54264;DHT22;40178;53.042;6.406;2022-09-09T12:31:36;20.40;23.80
54264;DHT22;40178;53.042;6.406;2022-09-09T12:34:32;20.60;32.50
54264;DHT22;40178;53.042;6.406;2022-09-09T12:39:54;20.60;25.60
54264;DHT22;40178;53.042;6.406;2022-09-09T12:42:21;20.50;1.00
54264;DHT22;40178;53.042;6.406;2022-09-09T12:44:53;20.40;1.00
54264;DHT22;40178;53.042;6.406;2022-09-09T12:50:19;20.20;1.30
54264;DHT22;40178;53.042;6.406;2022-09-09T12:52:47;20.30;1.00
54264;DHT22;40178;53.042;6.406;2022-09-09T12:55:21;20.30;1.00
54264;DHT22;40178;53.042;6.406;2022-09-09T12:57:48;20.20;1.00
54264;DHT22;40178;53.042;6.406;2022-09-09T13:00:22;20.00;1.00
54264;DHT22;40178;53.042;6.406;2022-09-09T13:02:53;20.00;1.00
54264;DHT22;40178;53.042;6.406;2022-09-09T13:05:23;20.10;1.00
54264;DHT22;40178;53.042;6.406;2022-09-09T13:07:50;20.20;1.40
54264;DHT22;40178;53.042;6.406;2022-09-09T13:10:23;20.20;1.00
54264;DHT22;40178;53.042;6.406;2022-09-09T13:12:50;20.40;1.00
54264;DHT22;40178;53.042;6.406;2022-09-09T13:15:33;20.20;1.00
54264;DHT22;40178;53.042;6.406;2022-09-09T13:18:11;20.00;1.00
54264;DHT22;40178;53.042;6.406;2022-09-09T13:20:38;19.80;4.10
54264;DHT22;40178;53.042;6.406;2022-09-09T13:23:04;19.60;8.30
54264;DHT22;40178;53.042;6.406;2022-09-09T13:25:30;19.60;54.90
54264;DHT22;40178;53.042;6.406;2022-09-09T13:28:04;19.50;95.60
54264;DHT22;40178;53.042;6.406;2022-09-09T13:30:34;19.70;95.40
54264;DHT22;40178;53.042;6.406;2022-09-09T13:35:35;20.10;89.50
54264;DHT22;40178;53.042;6.406;2022-09-09T13:38:14;20.20;88.60
54264;DHT22;40178;53.042;6.406;2022-09-09T13:40:40;20.60;91.80
54264;DHT22;40178;53.042;6.406;2022-09-09T13:43:21;20.60;85.50
54264;DHT22;40178;53.042;6.406;2022-09-09T13:45:55;20.40;92.70
54264;DHT22;40178;53.042;6.406;2022-09-09T13:48:22;20.20;41.90
54264;DHT22;40178;53.042;6.406;2022-09-09T13:51:03;19.90;50.80
54264;DHT22;40178;53.042;6.406;2022-09-09T13:53:30;19.70;39.70
54264;DHT22;40178;53.042;6.406;2022-09-09T13:55:56;19.50;62.30
54264;DHT22;40178;53.042;6.406;2022-09-09T13:58:23;19.40;68.90
54264;DHT22;40178;53.042;6.406;2022-09-09T14:00:51;19.40;76.40
54264;DHT22;40178;53.042;6.406;2022-09-09T14:03:17;19.50;89.90
54264;DHT22;40178;53.042;6.406;2022-09-09T14:05:44;19.50;85.60
54264;DHT22;40178;53.042;6.406;2022-09-09T14:08:16;19.50;83.50
54264;DHT22;40178;53.042;6.406;2022-09-09T14:10:44;19.20;69.80
54264;DHT22;40178;53.042;6.406;2022-09-09T14:13:09;18.90;85.70
54264;DHT22;40178;53.042;6.406;2022-09-09T14:15:37;18.60;90.90
54264;DHT22;40178;53.042;6.406;2022-09-09T14:18:03;18.50;95.80
54264;DHT22;40178;53.042;6.406;2022-09-09T14:20:29;18.50;96.90
54264;DHT22;40178;53.042;6.406;2022-09-09T14:22:54;18.50;98.10
54264;DHT22;40178;53.042;6.406;2022-09-09T14:25:20;18.60;97.50
54264;DHT22;40178;53.042;6.406;2022-09-09T14:27:45;18.70;91.80
54264;DHT22;40178;53.042;6.406;2022-09-09T14:30:11;19.20;95.40
54264;DHT22;40178;53.042;6.406;2022-09-09T14:32:37;19.80;74.40
54264;DHT22;40178;53.042;6.406;2022-09-09T14:35:03;20.40;57.90
54264;DHT22;40178;53.042;6.406;2022-09-09T14:37:29;20.50;34.90
54264;DHT22;40178;53.042;6.406;2022-09-09T14:39:56;20.60;16.00
54264;DHT22;40178;53.042;6.406;2022-09-09T14:42:22;21.00;1.00
54264;DHT22;40178;53.042;6.406;2022-09-09T14:44:48;21.20;16.70
54264;DHT22;40178;53.042;6.406;2022-09-09T14:47:14;21.30;1.00
54264;DHT22;40178;53.042;6.406;2022-09-09T14:49:40;21.70;43.80
54264;DHT22;40178;53.042;6.406;2022-09-09T14:52:05;21.80;1.00
54264;DHT22;40178;53.042;6.406;2022-09-09T14:54:31;21.60;1.00
54264;DHT22;40178;53.042;6.406;2022-09-09T14:56:58;21.30;1.00
54264;DHT22;40178;53.042;6.406;2022-09-09T14:59:24;21.60;6.10
54264;DHT22;40178;53.042;6.406;2022-09-09T15:01:50;21.80;1.00
54264;DHT22;40178;53.042;6.406;2022-09-09T15:04:15;21.60;1.00
54264;DHT22;40178;53.042;6.406;2022-09-09T15:06:42;21.20;1.00
54264;DHT22;40178;53.042;6.406;2022-09-09T15:09:09;20.70;1.00
54264;DHT22;40178;53.042;6.406;2022-09-09T15:11:36;20.50;1.00
54264;DHT22;40178;53.042;6.406;2022-09-09T15:14:04;20.10;1.00
54264;DHT22;40178;53.042;6.406;2022-09-09T15:16:30;20.10;18.60
54264;DHT22;40178;53.042;6.406;2022-09-09T15:18:58;20.10;7.30
54264;DHT22;40178;53.042;6.406;2022-09-09T15:21:26;19.90;9.60
54264;DHT22;40178;53.042;6.406;2022-09-09T15:23:53;19.80;1.80
54264;DHT22;40178;53.042;6.406;2022-09-09T15:26:19;19.60;1.00
54264;DHT22;40178;53.042;6.406;2022-09-09T15:28:46;19.50;1.00
54264;DHT22;40178;53.042;6.406;2022-09-09T15:31:18;19.40;22.00
54264;DHT22;40178;53.042;6.406;2022-09-09T15:33:54;19.30;33.50
54264;DHT22;40178;53.042;6.406;2022-09-09T15:36:30;19.10;27.70
54264;DHT22;40178;53.042;6.406;2022-09-09T15:38:58;19.00;37.60
54264;DHT22;40178;53.042;6.406;2022-09-09T15:41:24;18.90;42.40
54264;DHT22;40178;53.042;6.406;2022-09-09T15:43:52;18.90;40.30
54264;DHT22;40178;53.042;6.406;2022-09-09T15:46:34;18.80;52.80
54264;DHT22;40178;53.042;6.406;2022-09-09T15:49:15;18.80;51.80
54264;DHT22;40178;53.042;6.406;2022-09-09T15:51:43;18.80;52.40
54264;DHT22;40178;53.042;6.406;2022-09-09T15:54:13;18.90;52.00
54264;DHT22;40178;53.042;6.406;2022-09-09T15:56:40;18.90;57.70
54264;DHT22;40178;53.042;6.406;2022-09-09T15:59:06;18.90;44.10
54264;DHT22;40178;53.042;6.406;2022-09-09T16:01:32;18.90;51.70
54264;DHT22;40178;53.042;6.406;2022-09-09T16:03:59;18.90;36.90
54264;DHT22;40178;53.042;6.406;2022-09-09T16:06:26;18.80;48.00
54264;DHT22;40178;53.042;6.406;2022-09-09T16:08:55;18.80;57.00
54264;DHT22;40178;53.042;6.406;2022-09-09T16:11:32;18.70;44.60
54264;DHT22;40178;53.042;6.406;2022-09-09T16:13:58;18.70;41.90
54264;DHT22;40178;53.042;6.406;2022-09-09T16:16:26;18.80;48.00
54264;DHT22;40178;53.042;6.406;2022-09-09T16:18:55;18.90;47.90
54264;DHT22;40178;53.042;6.406;2022-09-09T16:21:27;19.00;48.70
54264;DHT22;40178;53.042;6.406;2022-09-09T16:23:55;19.10;43.40
54264;DHT22;40178;53.042;6.406;2022-09-09T16:26:22;19.00;53.70
54264;DHT22;40178;53.042;6.406;2022-09-09T16:28:48;18.80;64.80
54264;DHT22;40178;53.042;6.406;2022-09-09T16:31:19;18.60;68.60
54264;DHT22;40178;53.042;6.406;2022-09-09T16:33:46;18.50;73.90
54264;DHT22;40178;53.042;6.406;2022-09-09T16:36:15;18.40;76.60
54264;DHT22;40178;53.042;6.406;2022-09-09T16:38:40;18.30;80.40
54264;DHT22;40178;53.042;6.406;2022-09-09T16:41:07;18.20;85.80
54264;DHT22;40178;53.042;6.406;2022-09-09T16:43:34;18.00;87.00
54264;DHT22;40178;53.042;6.406;2022-09-09T16:46:01;18.00;90.50
54264;DHT22;40178;53.042;6.406;2022-09-09T16:48:31;18.00;90.70
54264;DHT22;40178;53.042;6.406;2022-09-09T16:51:06;18.00;90.90
54264;DHT22;40178;53.042;6.406;2022-09-09T16:53:33;17.90;90.70
54264;DHT22;40178;53.042;6.406;2022-09-09T16:56:05;18.00;91.90
54264;DHT22;40178;53.042;6.406;2022-09-09T16:58:31;17.80;92.30
54264;DHT22;40178;53.042;6.406;2022-09-09T17:00:58;17.70;93.70
54264;DHT22;40178;53.042;6.406;2022-09-09T17:03:24;17.70;93.80
54264;DHT22;40178;53.042;6.406;2022-09-09T17:05:49;17.70;95.90
54264;DHT22;40178;53.042;6.406;2022-09-09T17:08:16;17.70;96.50
54264;DHT22;40178;53.042;6.406;2022-09-09T17:10:41;17.70;96.20
54264;DHT22;40178;53.042;6.406;2022-09-09T17:13:07;17.70;96.20
54264;DHT22;40178;53.042;6.406;2022-09-09T17:15:33;17.70;97.00
54264;DHT22;40178;53.042;6.406;2022-09-09T17:17:59;17.70;96.50
54264;DHT22;40178;53.042;6.406;2022-09-09T17:20:25;17.70;97.00
54264;DHT22;40178;53.042;6.406;2022-09-09T17:22:51;17.70;97.10
54264;DHT22;40178;53.042;6.406;2022-09-09T17:25:16;17.70;95.90
54264;DHT22;40178;53.042;6.406;2022-09-09T17:27:42;17.70;95.80
54264;DHT22;40178;53.042;6.406;2022-09-09T17:30:08;17.70;96.20
54264;DHT22;40178;53.042;6.406;2022-09-09T17:32:34;17.70;95.90
54264;DHT22;40178;53.042;6.406;2022-09-09T17:35:01;17.60;96.10
54264;DHT22;40178;53.042;6.406;2022-09-09T17:37:26;17.70;96.30